Latest Weather Observations for Lihou Reef Lighthouse

IDQ60801

Issued at 10:02 pm EST Friday 29 July 2016 (issued every 30 minutes, with the page automatically refreshed every 10 minutes)

About weather observations | Map of weather stations | Latest weather observations for QLD | Other Formats
Station Details ID: 200880 Name: LIHOU REEF LIGHTHOUSE Lat: -17.13 Lon: 152.15 Height: 0.0 m
Data from the previous 72 hours. | See also: Recent months at Lihou Reef Lighthouse
Date/Time
EST
Temp
°C
App
Temp
°C
Dew
Point
°C
Rel
Hum
%
Delta-T
°C
Wind Press
QNH
hPa
Press
MSL
hPa
Rain since
9am
mm
Dir  Spd
km/h
Gust
km/h
Spd
kts
Gust
kts
29/10:00pm 24.8 - - - - SSE 35 41 19 22 1015.4 1015.3 -
29/09:30pm 24.0 - - - - SSE 33 43 18 23 1015.3 1015.2 -
29/09:00pm 23.5 - - - - SSE 33 44 18 24 1015.4 1015.3 -
29/08:30pm 24.4 - - - - SSE 33 44 18 24 1015.5 1015.4 -
29/08:00pm 25.1 - - - - SSE 33 41 18 22 1015.3 1015.2 -
29/07:30pm 24.6 - - - - SSE 37 44 20 24 1015.0 1014.9 -
29/07:00pm 25.1 - - - - SSE 32 37 17 20 1014.4 1014.3 -
29/06:30pm 25.1 - - - - SSE 37 43 20 23 1014.1 1014.0 -
29/06:00pm 25.3 - - - - SSE 33 41 18 22 1013.8 1013.7 -
29/05:30pm 24.8 - - - - SSE 37 43 20 23 1013.4 1013.3 -
29/05:00pm 25.1 - - - - SE 28 33 15 18 1013.5 1013.4 -
29/04:30pm 25.1 - - - - SE 28 33 15 18 1013.3 1013.2 -
29/04:00pm 25.1 - - - - SE 28 32 15 17 1013.3 1013.2 -
29/03:30pm 25.1 - - - - SSE 30 35 16 19 1013.0 1012.9 -
29/03:00pm 25.3 - - - - SE 28 33 15 18 1013.0 1012.9 -
29/02:30pm 25.3 - - - - SE 32 37 17 20 1013.0 1012.9 -
29/02:00pm 25.2 - - - - SSE 30 33 16 18 1013.1 1013.0 -
29/01:30pm 25.3 - - - - SE 32 37 17 20 1013.3 1013.2 -
29/01:00pm 25.4 - - - - SE 33 37 18 20 1013.6 1013.5 -
29/12:30pm 25.3 - - - - SE 30 35 16 19 1014.0 1013.9 -
29/12:00pm 25.3 - - - - SE 33 39 18 21 1014.5 1014.4 -
29/11:30am 25.4 - - - - SE 32 37 17 20 1014.9 1014.8 -
29/11:00am 25.2 - - - - SE 33 39 18 21 1015.3 1015.2 -
29/10:30am 25.5 - - - - SE 33 39 18 21 1015.6 1015.5 -
29/10:00am 25.5 - - - - SE 33 37 18 20 1015.8 1015.7 -
29/09:30am 25.3 - - - - SE 33 39 18 21 1015.6 1015.5 -
29/09:00am 25.2 - - - - SE 35 41 19 22 1015.5 1015.4 -
29/08:30am 25.2 - - - - SE 35 41 19 22 1015.6 1015.5 -
29/08:00am 25.1 - - - - SE 32 41 17 22 1015.6 1015.5 -
29/07:30am 24.4 - - - - SSE 33 39 18 21 1015.4 1015.3 -
29/07:00am 24.4 - - - - SE 33 43 18 23 1015.1 1015.0 -
29/06:30am 24.6 - - - - SE 32 41 17 22 1014.9 1014.8 -
29/06:00am 24.9 - - - - SE 35 41 19 22 1014.6 1014.5 -
29/05:30am 24.8 - - - - SE 33 39 18 21 1014.5 1014.4 -
29/05:00am 24.7 - - - - SE 33 41 18 22 1014.2 1014.1 -
29/04:30am 24.3 - - - - ESE 33 39 18 21 1014.1 1014.0 -
29/04:00am 24.9 - - - - SE 37 43 20 23 1014.1 1014.0 -
29/03:30am 24.9 - - - - SE 33 39 18 21 1013.9 1013.8 -
29/03:00am 24.9 - - - - SE 37 41 20 22 1014.0 1013.9 -
29/02:30am 24.7 - - - - SE 35 43 19 23 1014.2 1014.1 -
29/02:00am 24.5 - - - - SE 33 41 18 22 1014.4 1014.3 -
29/01:30am 23.6 - - - - SE 39 46 21 25 1014.9 1014.8 -
29/01:00am 24.6 - - - - SE 37 48 20 26 1014.9 1014.8 -
29/12:30am 24.8 - - - - SE 35 43 19 23 1015.3 1015.2 -
29/12:00am 24.9 - - - - SE 37 43 20 23 1015.4 1015.3 -
 
Date/Time
EST
Temp
°C
App
Temp
°C
Dew
Point
°C
Rel
Hum
%
Delta-T
°C
Wind Press
QNH
hPa
Press
MSL
hPa
Rain since
9am
mm
Dir  Spd
km/h
Gust
km/h
Spd
kts
Gust
kts
28/11:30pm 24.8 - - - - SE 39 46 21 25 1015.5 1015.4 -
28/11:00pm 24.8 - - - - SE 37 43 20 23 1015.9 1015.8 -
28/10:30pm 24.8 - - - - SE 35 41 19 22 1016.2 1016.1 -
28/10:00pm 24.9 - - - - SE 39 44 21 24 1016.4 1016.3 -
28/09:30pm 24.9 - - - - SE 39 44 21 24 1016.6 1016.5 -
28/09:00pm 25.0 - - - - SE 39 46 21 25 1016.6 1016.5 -
28/08:30pm 24.8 - - - - SE 39 44 21 24 1016.6 1016.5 -
28/08:00pm 24.9 - - - - SE 39 48 21 26 1016.5 1016.4 -
28/07:30pm 24.8 - - - - SE 41 48 22 26 1016.0 1015.9 -
28/07:00pm 24.7 - - - - SE 43 50 23 27 1015.8 1015.7 -
28/06:30pm 24.8 - - - - SE 39 46 21 25 1015.7 1015.6 -
28/06:00pm 24.7 - - - - SE 39 44 21 24 1015.5 1015.4 -
28/05:30pm 24.6 - - - - SE 39 44 21 24 1015.2 1015.1 -
28/05:00pm 24.6 - - - - SSE 37 43 20 23 1014.8 1014.7 -
28/04:30pm 24.5 - - - - SSE 37 43 20 23 1014.6 1014.5 -
28/04:00pm 24.4 - - - - SSE 39 44 21 24 1014.2 1014.1 -
28/03:30pm 24.5 - - - - SSE 35 44 19 24 1014.0 1013.9 -
28/03:00pm 24.7 - - - - SSE 35 41 19 22 1014.1 1014.0 -
28/02:30pm 24.6 - - - - SSE 35 41 19 22 1014.1 1014.0 -
28/02:00pm 24.6 - - - - SSE 37 46 20 25 1014.0 1013.9 -
28/01:30pm 24.5 - - - - SSE 39 44 21 24 1014.0 1013.9 -
28/01:00pm 24.4 - - - - SSE 41 46 22 25 1014.6 1014.5 -
28/12:30pm 24.5 - - - - SSE 39 46 21 25 1015.1 1015.0 -
28/12:00pm 24.4 - - - - SSE 41 48 22 26 1015.7 1015.6 -
28/11:30am 24.4 - - - - SSE 37 43 20 23 1016.0 1015.9 -
28/11:00am 24.6 - - - - SSE 39 46 21 25 1016.3 1016.2 -
28/10:30am 24.6 - - - - SSE 39 46 21 25 1016.6 1016.5 -
28/10:00am 24.7 - - - - SSE 37 43 20 23 1016.9 1016.8 -
28/09:30am 24.7 - - - - SSE 33 39 18 21 1017.3 1017.2 -
28/09:00am 25.0 - - - - SE 35 41 19 22 1017.5 1017.4 -
28/08:30am 24.7 - - - - SE 35 41 19 22 1017.3 1017.2 -
28/08:00am 24.7 - - - - SSE 32 37 17 20 1017.0 1016.9 -
28/07:30am 24.6 - - - - SSE 30 35 16 19 1016.8 1016.7 -
28/07:00am 24.6 - - - - SSE 30 35 16 19 1016.4 1016.3 -
28/06:30am 24.4 - - - - SSE 30 33 16 18 1016.3 1016.2 -
28/06:00am 24.7 - - - - SSE 28 32 15 17 1015.9 1015.8 -
28/05:30am 24.3 - - - - SSE 33 37 18 20 1015.6 1015.5 -
28/05:00am 24.5 - - - - SSE 32 35 17 19 1015.3 1015.2 -
28/04:30am 24.8 - - - - SSE 28 33 15 18 1015.3 1015.2 -
28/04:00am 24.5 - - - - SSE 32 37 17 20 1015.2 1015.1 -
28/03:30am 24.3 - - - - SSE 28 32 15 17 1015.5 1015.4 -
28/03:00am 24.1 - - - - SSE 26 32 14 17 1015.5 1015.4 -
28/02:30am 23.7 - - - - SSE 22 26 12 14 1015.9 1015.8 -
28/02:00am 24.1 - - - - SSE 26 30 14 16 1015.9 1015.8 -
28/01:30am 24.1 - - - - SSE 32 37 17 20 1015.8 1015.7 -
28/01:00am 23.8 - - - - SSE 26 30 14 16 1016.2 1016.1 -
28/12:30am 24.0 - - - - SSE 26 30 14 16 1016.6 1016.5 -
28/12:00am 23.8 - - - - SSE 24 30 13 16 1016.6 1016.5 -
 
Date/Time
EST
Temp
°C
App
Temp
°C
Dew
Point
°C
Rel
Hum
%
Delta-T
°C
Wind Press
QNH
hPa
Press
MSL
hPa
Rain since
9am
mm
Dir  Spd
km/h
Gust
km/h
Spd
kts
Gust
kts
27/11:30pm 24.5 - - - - SSE 24 28 13 15 1016.9 1016.8 -
27/11:00pm 24.8 - - - - SSE 22 26 12 14 1017.0 1016.9 -
27/10:30pm 25.4 - - - - SSE 24 28 13 15 1017.1 1017.0 -
27/10:00pm 25.4 - - - - SSE 22 28 12 15 1016.9 1016.8 -
27/09:30pm 25.5 - - - - SSE 24 26 13 14 1016.9 1016.8 -
27/09:00pm 25.5 - - - - SSE 22 28 12 15 1016.8 1016.7 -
27/08:30pm 25.4 - - - - SSE 20 24 11 13 1016.7 1016.6 -
27/08:00pm 25.6 - - - - SSE 24 28 13 15 1016.4 1016.3 -
27/07:30pm 25.5 - - - - SSE 22 26 12 14 1016.2 1016.1 -
27/07:00pm 25.5 - - - - SE 20 24 11 13 1015.9 1015.8 -
27/06:30pm 25.6 - - - - SSE 20 24 11 13 1015.7 1015.6 -
27/06:00pm 25.4 - - - - SE 22 24 12 13 1015.2 1015.1 -
27/05:30pm 25.6 - - - - SE 22 26 12 14 1014.7 1014.6 -
27/05:00pm 25.5 - - - - SE 24 26 13 14 1014.3 1014.2 -
27/04:30pm 25.6 - - - - SE 24 28 13 15 1013.9 1013.8 -
27/04:00pm 25.5 - - - - SE 24 28 13 15 1013.4 1013.3 -
27/03:30pm 25.7 - - - - SE 24 30 13 16 1013.1 1013.0 -
27/03:00pm 25.7 - - - - SE 26 30 14 16 1013.1 1013.0 -
27/02:30pm 25.9 - - - - SE 22 28 12 15 1013.3 1013.2 -
27/02:00pm 25.9 - - - - SE 24 28 13 15 1013.5 1013.4 -
27/01:30pm 25.9 - - - - SE 24 28 13 15 1013.6 1013.5 -
27/01:00pm 26.0 - - - - SE 24 26 13 14 1013.7 1013.6 -
27/12:30pm 25.8 - - - - SE 22 26 12 14 1014.0 1013.9 -
27/12:00pm 25.8 - - - - SE 24 28 13 15 1014.5 1014.4 -
27/11:30am 25.9 - - - - SE 22 26 12 14 1014.9 1014.8 -
27/11:00am 25.8 - - - - SE 24 28 13 15 1015.2 1015.1 -
27/10:30am 25.8 - - - - SE 22 26 12 14 1015.5 1015.4 -
27/10:00am 25.9 - - - - SE 24 28 13 15 1015.8 1015.7 -
27/09:30am 26.0 - - - - ESE 24 28 13 15 1015.9 1015.8 -
27/09:00am 25.9 - - - - ESE 24 28 13 15 1016.0 1015.9 -
27/08:30am 25.9 - - - - ESE 24 26 13 14 1015.9 1015.8 -
27/08:00am 25.8 - - - - ESE 26 28 14 15 1015.7 1015.6 -
27/07:30am 25.6 - - - - ESE 26 28 14 15 1015.5 1015.4 -
27/07:00am 25.2 - - - - ESE 22 26 12 14 1015.3 1015.2 -
27/06:30am 25.3 - - - - SE 26 30 14 16 1014.9 1014.8 -
27/06:00am 25.3 - - - - ESE 24 26 13 14 1014.6 1014.5 -
27/05:30am 25.2 - - - - SE 24 28 13 15 1014.3 1014.2 -
27/05:00am 25.2 - - - - ESE 22 24 12 13 1014.4 1014.3 -
27/04:30am 25.2 - - - - SE 24 28 13 15 1014.3 1014.2 -
27/04:00am 25.2 - - - - ESE 22 28 12 15 1014.2 1014.1 -
27/03:30am 25.1 - - - - ESE 24 28 13 15 1014.2 1014.1 -
27/03:00am 25.1 - - - - ESE 22 24 12 13 1014.4 1014.3 -
27/02:30am 25.2 - - - - ESE 22 26 12 14 1014.5 1014.4 -
27/02:00am 25.2 - - - - ESE 22 26 12 14 1014.6 1014.5 -
27/01:30am 25.2 - - - - ESE 22 26 12 14 1014.8 1014.7 -
27/01:00am 25.3 - - - - ESE 22 26 12 14 1015.3 1015.2 -
27/12:30am 25.2 - - - - ESE 26 28 14 15 1015.3 1015.2 -
27/12:00am 25.4 - - - - ESE 26 28 14 15 1015.4 1015.3 -
 
Date/Time
EST
Temp
°C
App
Temp
°C
Dew
Point
°C
Rel
Hum
%
Delta-T
°C
Wind Press
QNH
hPa
Press
MSL
hPa
Rain since
9am
mm
Dir  Spd
km/h
Gust
km/h
Spd
kts
Gust
kts
26/11:30pm 25.3 - - - - ESE 26 32 14 17 1015.3 1015.2 -
26/11:00pm 25.4 - - - - ESE 26 30 14 16 1015.3 1015.2 -
26/10:30pm 25.4 - - - - ESE 28 32 15 17 1015.2 1015.1 -

Other Formats:

Comma delimited format used in spreadsheet applications
http://www.bom.gov.au/fwo/IDQ60801/IDQ60801.94293.axf

JavaScript Object Notation format (JSON) in row-major order
http://www.bom.gov.au/fwo/IDQ60801/IDQ60801.94293.json